Time;durP1;ratioP1;P1;durP2;ratioP2;P2;SDS_P1;SDS_P2;PMS_P1;PMS_P2;Temp;Humidity;BMP_temperature;BMP_pressure;BME280_temperature;BME280_humidity;BME280_pressure;Samples;Min_cycle;Max_cycle;Signal;HPM_P1;HPM_P2
2023/10/01 00:00:36;;;;;;;13.10;10.60;;;12.20;99.90;;;;;;4990491;28;20653;-71
2023/10/01 00:03:06;;;;;;;15.37;10.77;;;12.20;99.90;;;;;;4992555;28;20637;-70
2023/10/01 00:05:31;;;;;;;13.07;10.93;;;12.20;99.90;;;;;;4992765;28;20173;-71
2023/10/01 00:07:57;;;;;;;13.83;10.23;;;12.10;99.90;;;;;;4992489;28;20208;-71
2023/10/01 00:10:22;;;;;;;15.10;10.43;;;12.00;99.90;;;;;;4992137;28;20319;-70
2023/10/01 00:12:52;;;;;;;11.63;10.23;;;12.00;99.90;;;;;;4992453;28;20185;-71
2023/10/01 00:15:21;;;;;;;15.83;10.50;;;12.00;99.90;;;;;;4988021;28;20235;-71
2023/10/01 00:17:48;;;;;;;15.10;10.77;;;12.00;99.90;;;;;;4992422;28;20172;-70
2023/10/01 00:20:22;;;;;;;14.07;10.10;;;11.90;99.90;;;;;;4992001;28;20200;-71
2023/10/01 00:22:50;;;;;;;20.93;10.27;;;11.90;99.90;;;;;;4990675;28;20172;-71
2023/10/01 00:25:17;;;;;;;18.30;10.30;;;11.80;99.90;;;;;;4984352;28;20280;-71
2023/10/01 00:27:44;;;;;;;14.50;10.07;;;11.80;99.90;;;;;;4992287;28;20219;-71
2023/10/01 00:30:11;;;;;;;13.50;10.27;;;11.70;99.90;;;;;;4989146;28;20216;-71
2023/10/01 00:32:37;;;;;;;15.17;10.10;;;11.70;99.90;;;;;;4985192;28;20177;-71
2023/10/01 00:35:04;;;;;;;14.20;9.87;;;11.70;99.90;;;;;;4988329;28;20200;-71
2023/10/01 00:37:30;;;;;;;16.10;10.57;;;11.70;99.90;;;;;;4989062;28;20201;-71
2023/10/01 00:39:58;;;;;;;12.37;9.97;;;11.60;99.90;;;;;;4987463;28;20203;-71
2023/10/01 00:42:24;;;;;;;13.20;9.90;;;11.60;99.90;;;;;;4991972;28;20250;-70
2023/10/01 00:44:50;;;;;;;12.80;9.30;;;11.60;99.90;;;;;;4987322;28;20649;-72
2023/10/01 00:47:16;;;;;;;16.30;10.27;;;11.50;99.90;;;;;;4989548;28;20207;-70
2023/10/01 00:49:48;;;;;;;13.17;9.70;;;11.50;99.90;;;;;;4992028;28;20711;-70
2023/10/01 00:52:14;;;;;;;14.27;10.53;;;11.50;99.90;;;;;;4991489;28;20180;-70
2023/10/01 00:54:40;;;;;;;12.80;10.60;;;11.50;99.90;;;;;;4987296;28;20631;-70
2023/10/01 00:57:06;;;;;;;13.90;9.83;;;11.50;99.90;;;;;;4992116;28;20413;-71
2023/10/01 00:59:33;;;;;;;11.67;9.13;;;11.40;99.90;;;;;;4991846;28;20208;-70
2023/10/01 01:01:59;;;;;;;17.03;10.13;;;11.40;99.90;;;;;;4988742;28;20204;-69
2023/10/01 01:04:29;;;;;;;14.40;9.77;;;11.40;99.90;;;;;;4989920;28;20185;-71
2023/10/01 01:07:01;;;;;;;10.07;9.00;;;11.40;99.90;;;;;;4991824;28;20185;-70
2023/10/01 01:09:28;;;;;;;13.73;8.77;;;11.40;99.90;;;;;;4991618;28;20201;-71
2023/10/01 01:11:53;;;;;;;11.80;9.27;;;11.30;99.90;;;;;;4991637;28;20188;-71
2023/10/01 01:14:21;;;;;;;14.33;9.57;;;11.30;99.90;;;;;;4991421;28;20212;-70
2023/10/01 01:16:48;;;;;;;11.03;9.33;;;11.30;99.90;;;;;;4991714;28;20181;-71
2023/10/01 01:19:15;;;;;;;15.27;9.40;;;11.30;99.90;;;;;;4984383;28;20200;-71
2023/10/01 01:21:42;;;;;;;13.13;8.73;;;11.30;99.90;;;;;;4983741;28;20632;-71
2023/10/01 01:24:09;;;;;;;12.77;9.67;;;11.30;99.90;;;;;;4984647;28;20263;-71
2023/10/01 01:26:37;;;;;;;10.40;8.93;;;11.30;99.90;;;;;;4975819;28;20187;-70
2023/10/01 01:29:17;;;;;;;12.03;8.90;;;11.20;99.90;;;;;;4986229;28;20177;-72
2023/10/01 01:31:45;;;;;;;16.63;9.60;;;11.20;99.90;;;;;;4991356;28;20508;-71
2023/10/01 01:34:12;;;;;;;11.23;8.00;;;11.20;99.90;;;;;;4989387;28;20212;-70
2023/10/01 01:36:39;;;;;;;11.67;8.50;;;11.20;99.90;;;;;;4979594;28;20604;-71
2023/10/01 01:39:28;;;;;;;12.60;8.10;;;11.10;99.90;;;;;;4991395;28;20272;-71
2023/10/01 01:41:54;;;;;;;9.10;7.83;;;11.10;99.90;;;;;;4980354;28;20188;-72
2023/10/01 01:44:20;;;;;;;12.87;7.83;;;11.10;99.90;;;;;;4990191;28;20185;-71
2023/10/01 01:46:49;;;;;;;11.40;8.10;;;11.10;99.90;;;;;;4993453;28;20207;-71
2023/10/01 01:49:19;;;;;;;11.07;8.43;;;11.10;99.90;;;;;;4994867;28;20200;-71
2023/10/01 01:51:59;;;;;;;10.33;7.63;;;11.10;99.90;;;;;;4988194;28;20185;-71
2023/10/01 01:54:27;;;;;;;8.80;7.73;;;11.10;99.90;;;;;;4994892;28;20739;-71
2023/10/01 01:56:55;;;;;;;9.63;7.93;;;11.10;99.90;;;;;;4994674;28;20173;-71
2023/10/01 01:59:24;;;;;;;14.30;8.57;;;11.10;99.90;;;;;;4994657;28;20595;-71
2023/10/01 02:01:50;;;;;;;12.97;7.97;;;11.10;99.90;;;;;;4994598;28;20259;-71
2023/10/01 02:04:16;;;;;;;11.00;8.13;;;11.10;99.90;;;;;;4994658;28;20189;-71
2023/10/01 02:06:42;;;;;;;12.40;7.93;;;11.00;99.90;;;;;;4982255;28;20185;-71
2023/10/01 02:09:12;;;;;;;11.63;8.07;;;11.00;99.90;;;;;;4990756;28;20652;-71
2023/10/01 02:11:38;;;;;;;11.97;8.53;;;11.00;99.90;;;;;;4994595;28;20591;-71
2023/10/01 02:14:05;;;;;;;11.33;8.30;;;10.90;99.90;;;;;;4994404;28;20258;-70
2023/10/01 02:19:11;;;;;;;10.23;7.80;;;10.90;99.90;;;;;;4994645;28;20652;-71
2023/10/01 02:21:43;;;;;;;11.97;8.13;;;10.90;99.90;;;;;;4986669;28;20731;-71
2023/10/01 02:24:15;;;;;;;11.70;8.73;;;10.90;99.90;;;;;;4994655;28;20286;-71
2023/10/01 02:26:46;;;;;;;14.70;8.77;;;10.90;99.90;;;;;;4979318;28;20184;-71
2023/10/01 02:29:13;;;;;;;11.90;8.27;;;10.90;99.90;;;;;;4994532;28;20203;-71
2023/10/01 02:31:47;;;;;;;11.00;8.27;;;10.90;99.90;;;;;;4978525;28;20430;-70
2023/10/01 02:34:14;;;;;;;9.90;8.47;;;10.90;99.90;;;;;;4992174;28;20208;-71
2023/10/01 02:36:42;;;;;;;9.43;7.77;;;10.90;99.90;;;;;;4979086;28;20264;-71
2023/10/01 02:39:20;;;;;;;10.57;9.10;;;10.90;99.90;;;;;;4994164;28;20201;-71
2023/10/01 02:42:09;;;;;;;12.27;8.63;;;10.90;99.90;;;;;;4986068;28;20176;-71
2023/10/01 02:44:38;;;;;;;14.33;9.10;;;10.90;99.90;;;;;;4990721;28;20271;-70
2023/10/01 02:47:16;;;;;;;11.83;8.53;;;11.00;99.90;;;;;;4993958;28;20215;-71
2023/10/01 02:49:50;;;;;;;10.87;9.10;;;10.90;99.90;;;;;;4982966;28;20204;-70
2023/10/01 02:52:26;;;;;;;13.63;9.17;;;11.00;99.90;;;;;;4993598;28;20263;-70
2023/10/01 02:54:57;;;;;;;14.43;9.47;;;11.00;99.90;;;;;;4994075;28;20624;-70
2023/10/01 02:57:23;;;;;;;12.63;9.83;;;11.00;99.90;;;;;;4988959;28;20239;-70
2023/10/01 03:02:38;;;;;;;12.10;9.87;;;11.10;99.90;;;;;;4994105;28;20628;-70
2023/10/01 03:05:08;;;;;;;12.23;9.77;;;11.10;99.90;;;;;;4991066;28;20189;-71
2023/10/01 03:07:38;;;;;;;16.17;9.90;;;11.10;99.90;;;;;;4993159;28;20550;-70
2023/10/01 03:10:12;;;;;;;14.33;9.97;;;11.10;99.90;;;;;;4993689;28;20232;-71
2023/10/01 03:12:40;;;;;;;13.67;11.13;;;11.20;99.90;;;;;;4993619;28;20216;-70
2023/10/01 03:17:39;;;;;;;13.87;10.17;;;11.10;99.90;;;;;;4993812;28;20193;-71
2023/10/01 03:21:02;;;;;;;14.77;10.40;;;11.10;99.90;;;;;;4993388;28;20204;-71
2023/10/01 03:22:53;;;;;;;13.57;10.53;;;11.10;99.90;;;;;;4985624;28;20185;-70
2023/10/01 03:25:20;;;;;;;14.43;10.20;;;11.10;99.90;;;;;;4985326;28;20185;-71
2023/10/01 03:27:45;;;;;;;15.20;10.97;;;11.10;99.90;;;;;;4983320;28;20188;-70
2023/10/01 03:30:22;;;;;;;14.57;10.13;;;11.10;99.90;;;;;;4985010;28;20295;-71
2023/10/01 03:32:48;;;;;;;12.43;9.73;;;11.10;99.90;;;;;;4993156;28;20184;-71
2023/10/01 03:35:13;;;;;;;12.27;10.07;;;11.10;99.90;;;;;;4993005;28;20219;-71
2023/10/01 03:37:39;;;;;;;14.97;9.33;;;11.10;99.90;;;;;;4993199;28;20176;-70
2023/10/01 03:40:18;;;;;;;11.83;8.77;;;11.10;99.90;;;;;;4990425;28;20252;-71
2023/10/01 03:42:51;;;;;;;13.27;10.30;;;11.00;99.90;;;;;;4993014;28;20176;-71
2023/10/01 03:45:25;;;;;;;12.20;10.10;;;11.00;99.90;;;;;;4993039;28;20555;-70
2023/10/01 03:47:57;;;;;;;12.40;9.40;;;11.00;99.90;;;;;;4979619;28;20648;-71
2023/10/01 03:50:26;;;;;;;13.87;9.73;;;11.00;99.90;;;;;;4992630;28;20197;-70
2023/10/01 03:52:54;;;;;;;12.00;9.23;;;11.00;99.90;;;;;;4991587;28;20230;-71
2023/10/01 03:55:27;;;;;;;12.63;9.50;;;11.00;99.90;;;;;;4989596;28;20220;-71
2023/10/01 03:58:05;;;;;;;14.13;10.00;;;10.90;99.90;;;;;;4992903;28;20652;-70
2023/10/01 04:00:41;;;;;;;14.27;9.60;;;10.90;99.90;;;;;;4992532;28;20207;-71
2023/10/01 04:03:16;;;;;;;20.03;10.73;;;10.90;99.90;;;;;;4982734;28;20184;-71
2023/10/01 04:05:46;;;;;;;16.23;10.83;;;11.00;99.90;;;;;;4991381;28;20192;-71
2023/10/01 04:08:12;;;;;;;15.50;10.40;;;11.00;99.90;;;;;;4989622;28;20388;-70
2023/10/01 04:10:38;;;;;;;18.13;10.90;;;11.00;99.90;;;;;;4992462;28;20208;-70
2023/10/01 04:13:20;;;;;;;17.63;11.30;;;11.00;99.90;;;;;;4992590;28;20195;-70
2023/10/01 04:15:48;;;;;;;16.83;10.43;;;11.00;99.90;;;;;;4992522;28;20213;-70
2023/10/01 04:23:29;;;;;;;14.53;11.00;;;11.10;99.90;;;;;;4987881;28;20212;-70
2023/10/01 04:26:06;;;;;;;18.00;10.30;;;11.10;99.90;;;;;;4992519;28;20187;-71
2023/10/01 04:28:36;;;;;;;15.00;10.83;;;11.10;99.90;;;;;;4992317;28;20223;-70
2023/10/01 04:31:09;;;;;;;15.47;10.50;;;11.10;99.90;;;;;;4990587;28;20684;-70
2023/10/01 04:33:42;;;;;;;15.23;10.90;;;11.10;99.90;;;;;;4992131;28;20203;-71
2023/10/01 04:36:12;;;;;;;13.47;10.37;;;11.10;99.90;;;;;;4990118;28;20549;-71
2023/10/01 04:38:41;;;;;;;16.83;10.93;;;11.10;99.90;;;;;;4991278;28;20185;-70
2023/10/01 04:41:11;;;;;;;16.60;10.53;;;11.10;99.90;;;;;;4983858;28;20304;-71
2023/10/01 04:43:42;;;;;;;15.40;10.17;;;11.10;99.90;;;;;;4990875;28;20259;-70
2023/10/01 04:46:10;;;;;;;13.80;10.07;;;11.10;99.90;;;;;;4992221;28;20736;-70
2023/10/01 04:48:39;;;;;;;14.57;10.80;;;11.10;99.90;;;;;;4991988;28;20185;-71
2023/10/01 04:51:07;;;;;;;13.73;10.03;;;11.10;99.90;;;;;;4988425;28;20304;-71
2023/10/01 04:53:33;;;;;;;14.97;10.17;;;11.10;99.90;;;;;;4988999;28;20185;-70
2023/10/01 04:56:05;;;;;;;15.70;10.30;;;11.10;99.90;;;;;;4986959;28;20425;-70
2023/10/01 04:58:36;;;;;;;12.80;9.87;;;11.10;99.90;;;;;;4989875;28;20181;-70
2023/10/01 05:01:11;;;;;;;17.03;10.37;;;11.10;99.90;;;;;;4991819;28;20207;-70
2023/10/01 05:03:41;;;;;;;15.03;10.17;;;11.10;99.90;;;;;;4991921;28;20188;-70
2023/10/01 05:06:11;;;;;;;13.00;9.57;;;11.10;99.90;;;;;;4983915;28;20191;-70
2023/10/01 05:08:40;;;;;;;15.77;9.70;;;11.10;99.90;;;;;;4992132;28;20185;-71
2023/10/01 05:11:13;;;;;;;13.07;9.83;;;11.10;99.90;;;;;;4991603;28;20204;-71
2023/10/01 05:13:41;;;;;;;11.27;9.30;;;11.10;99.90;;;;;;4991830;28;20263;-71
2023/10/01 05:16:08;;;;;;;13.13;9.57;;;11.10;99.90;;;;;;4991732;28;20202;-71
2023/10/01 05:18:34;;;;;;;12.43;9.67;;;11.00;99.90;;;;;;4992044;28;20192;-71
2023/10/01 05:21:04;;;;;;;14.17;9.90;;;11.10;99.90;;;;;;4990691;28;20750;-71
2023/10/01 05:23:30;;;;;;;15.97;9.87;;;11.00;99.90;;;;;;4995399;28;20181;-71
2023/10/01 05:25:59;;;;;;;14.43;9.90;;;11.00;99.90;;;;;;4995653;28;20545;-71
2023/10/01 05:28:31;;;;;;;13.73;10.00;;;11.00;99.90;;;;;;4995192;28;20211;-71
2023/10/01 05:30:59;;;;;;;14.93;10.13;;;11.00;99.90;;;;;;4995656;28;20235;-71
2023/10/01 05:33:25;;;;;;;17.30;9.17;;;11.00;99.90;;;;;;4990961;28;20185;-71
2023/10/01 05:35:57;;;;;;;12.53;9.57;;;11.00;99.90;;;;;;4991498;28;20208;-71
2023/10/01 05:38:26;;;;;;;11.70;9.50;;;11.00;99.90;;;;;;4995004;28;20243;-71
2023/10/01 05:40:54;;;;;;;12.73;9.27;;;11.00;99.90;;;;;;4995212;28;20201;-71
2023/10/01 05:43:23;;;;;;;22.23;9.97;;;11.10;99.90;;;;;;4994988;28;20188;-71
2023/10/01 05:45:52;;;;;;;14.17;9.43;;;11.10;99.90;;;;;;4995145;28;20346;-71
2023/10/01 05:48:19;;;;;;;10.73;9.10;;;11.10;99.90;;;;;;4994858;28;20191;-71
2023/10/01 05:50:46;;;;;;;12.20;9.73;;;11.10;99.90;;;;;;4992526;28;20208;-71
2023/10/01 05:53:13;;;;;;;15.63;9.67;;;11.20;99.90;;;;;;4994753;28;20173;-71
2023/10/01 05:55:43;;;;;;;17.00;10.47;;;11.20;99.90;;;;;;4994870;28;20204;-71
2023/10/01 05:58:13;;;;;;;14.43;10.53;;;11.20;99.90;;;;;;4994826;28;20177;-71
2023/10/01 06:00:45;;;;;;;15.53;11.07;;;11.20;99.90;;;;;;4994600;28;20215;-71
2023/10/01 06:03:15;;;;;;;15.13;10.43;;;11.30;99.90;;;;;;4994612;28;20181;-71
2023/10/01 06:05:50;;;;;;;14.73;10.73;;;11.30;99.90;;;;;;4984214;28;20188;-71
2023/10/01 06:08:24;;;;;;;14.97;10.00;;;11.30;99.90;;;;;;4990039;28;20208;-71
2023/10/01 06:11:05;;;;;;;15.37;10.43;;;11.30;99.90;;;;;;4990248;28;20242;-72
2023/10/01 06:13:33;;;;;;;14.23;10.40;;;11.40;99.90;;;;;;4994358;28;20192;-71
2023/10/01 06:16:11;;;;;;;22.07;11.60;;;11.50;99.90;;;;;;4994535;28;20256;-71
2023/10/01 06:18:41;;;;;;;16.47;11.47;;;11.50;99.90;;;;;;4992829;28;20176;-71
2023/10/01 06:21:09;;;;;;;19.17;11.43;;;11.60;99.90;;;;;;4988291;28;20197;-71
2023/10/01 06:23:49;;;;;;;15.93;10.90;;;11.70;99.90;;;;;;4994311;28;20176;-71
2023/10/01 06:26:19;;;;;;;15.73;10.87;;;11.70;99.90;;;;;;4994166;28;20207;-71
2023/10/01 06:28:45;;;;;;;13.47;11.17;;;11.70;99.90;;;;;;4994395;28;20189;-71
2023/10/01 06:31:11;;;;;;;14.50;10.87;;;11.80;99.90;;;;;;4992919;28;20197;-71
2023/10/01 06:33:38;;;;;;;20.37;12.13;;;11.80;99.90;;;;;;4992010;28;20596;-71
2023/10/01 06:36:19;;;;;;;25.23;12.03;;;11.90;99.90;;;;;;4994371;28;20263;-71
2023/10/01 06:38:47;;;;;;;20.03;11.23;;;12.00;99.90;;;;;;4996533;28;20631;-71
2023/10/01 06:41:16;;;;;;;15.90;12.17;;;12.00;99.90;;;;;;4992572;28;20181;-71
2023/10/01 06:43:48;;;;;;;15.57;10.07;;;12.20;99.90;;;;;;4991695;28;20859;-72
2023/10/01 06:46:27;;;;;;;16.57;11.30;;;12.40;99.90;;;;;;4982077;28;20253;-71
2023/10/01 06:48:56;;;;;;;18.40;12.07;;;12.70;99.90;;;;;;4973103;28;20552;-71
2023/10/01 06:51:25;;;;;;;14.30;10.20;;;13.30;99.90;;;;;;4993587;28;20267;-71
2023/10/01 06:54:05;;;;;;;12.70;9.20;;;13.70;99.90;;;;;;4990412;28;20193;-71
2023/10/01 06:56:33;;;;;;;12.03;8.97;;;14.10;99.90;;;;;;4984389;28;20189;-71
2023/10/01 07:01:34;;;;;;;8.90;7.03;;;15.10;99.90;;;;;;4993211;28;20181;-72
2023/10/01 07:04:02;;;;;;;11.17;6.97;;;15.60;99.90;;;;;;4993670;28;20667;-72
2023/10/01 07:06:28;;;;;;;10.53;6.87;;;16.10;99.90;;;;;;4993379;28;20629;-72
2023/10/01 07:08:54;;;;;;;7.00;5.70;;;16.60;99.90;;;;;;4993662;28;20491;-72
2023/10/01 07:11:21;;;;;;;7.60;6.37;;;17.10;99.90;;;;;;4988774;28;20704;-72
2023/10/01 07:13:48;;;;;;;11.23;7.57;;;17.50;99.90;;;;;;4993341;28;20548;-72
2023/10/01 07:16:18;;;;;;;7.63;5.97;;;17.80;99.90;;;;;;4989731;28;20264;-72
2023/10/01 07:18:44;;;;;;;8.37;6.33;;;18.00;99.90;;;;;;4986403;28;20177;-72
2023/10/01 07:21:11;;;;;;;10.43;7.10;;;18.20;99.90;;;;;;4988504;28;20193;-72
2023/10/01 07:23:38;;;;;;;7.37;6.07;;;18.40;99.90;;;;;;4992186;28;20169;-70
2023/10/01 07:26:12;;;;;;;8.13;5.90;;;18.50;99.90;;;;;;4989661;28;20173;-71
2023/10/01 07:28:41;;;;;;;9.50;6.00;;;18.70;99.90;;;;;;4977099;28;20185;-71
2023/10/01 07:31:07;;;;;;;9.87;6.00;;;19.10;99.90;;;;;;4988303;28;20207;-71
2023/10/01 07:33:33;;;;;;;8.88;5.82;;;19.40;99.90;;;;;;4992853;28;20173;-71
2023/10/01 07:35:59;;;;;;;9.15;6.38;;;19.70;99.90;;;;;;4993333;28;20231;-71
2023/10/01 07:38:29;;;;;;;14.23;7.20;;;20.10;99.90;;;;;;4992657;28;20173;-71
2023/10/01 07:40:57;;;;;;;9.88;6.15;;;20.50;99.90;;;;;;4987280;28;20197;-71
2023/10/01 07:43:30;;;;;;;9.45;6.72;;;20.90;99.90;;;;;;4981798;28;20182;-71
2023/10/01 07:45:58;;;;;;;6.75;6.07;;;21.40;99.90;;;;;;4984754;28;20204;-71
2023/10/01 07:48:27;;;;;;;8.82;6.28;;;21.70;99.90;;;;;;4992373;28;20177;-71
2023/10/01 07:50:55;;;;;;;10.18;6.28;;;21.90;99.90;;;;;;4985199;28;20205;-71
2023/10/01 07:53:23;;;;;;;8.00;5.57;;;22.20;99.90;;;;;;4992225;28;20637;-71
2023/10/01 07:55:48;;;;;;;8.77;5.47;;;22.30;99.90;;;;;;4990235;28;20228;-71
2023/10/01 07:58:23;;;;;;;8.40;5.57;;;22.60;99.90;;;;;;4984847;28;20263;-71
2023/10/01 08:00:58;;;;;;;9.88;6.70;;;22.80;99.90;;;;;;4992197;28;20203;-71
2023/10/01 08:06:05;;;;;;;8.40;5.95;;;23.10;99.90;;;;;;4990258;28;20699;-71
2023/10/01 08:08:47;;;;;;;6.88;5.35;;;23.30;99.90;;;;;;4992626;28;20192;-71
2023/10/01 08:13:57;;;;;;;10.50;6.43;;;23.60;99.90;;;;;;4984910;28;20262;-71
2023/10/01 08:16:27;;;;;;;9.32;5.88;;;23.50;99.90;;;;;;4992180;28;20177;-71
2023/10/01 08:18:57;;;;;;;9.75;6.25;;;23.40;99.90;;;;;;4992279;28;20181;-72
2023/10/01 08:21:30;;;;;;;10.65;6.25;;;23.20;99.90;;;;;;4992009;28;20289;-71
2023/10/01 08:23:57;;;;;;;12.68;6.88;;;22.80;99.90;;;;;;4992259;28;20181;-71
2023/10/01 08:26:43;;;;;;;12.07;6.22;;;22.60;99.90;;;;;;4986413;28;20180;-71
2023/10/01 08:29:09;;;;;;;9.43;6.15;;;22.60;99.90;;;;;;4992032;28;20228;-72
2023/10/01 08:34:23;;;;;;;7.88;5.43;;;23.20;99.90;;;;;;4991958;28;20200;-72
2023/10/01 08:36:55;;;;;;;9.68;6.18;;;23.50;99.90;;;;;;4991957;28;20180;-72
2023/10/01 08:39:35;;;;;;;9.93;5.68;;;23.80;99.90;;;;;;4991887;28;20726;-70
2023/10/01 08:42:08;;;;;;;13.43;6.25;;;23.80;99.90;;;;;;4984035;28;20173;-71
2023/10/01 08:44:54;;;;;;;9.68;5.97;;;23.80;99.90;;;;;;4990433;28;20216;-70
2023/10/01 08:47:27;;;;;;;11.15;6.50;;;23.80;99.90;;;;;;4991733;28;20192;-70
2023/10/01 08:49:55;;;;;;;12.73;6.45;;;23.90;99.90;;;;;;4988586;28;20219;-70
2023/10/01 08:52:26;;;;;;;14.35;7.35;;;23.90;99.90;;;;;;4991702;28;20184;-70
2023/10/01 08:54:56;;;;;;;9.50;5.57;;;24.00;99.90;;;;;;4986423;28;20220;-71
2023/10/01 08:57:45;;;;;;;9.73;5.45;;;24.00;99.90;;;;;;4991516;28;20640;-71
2023/10/01 09:00:19;;;;;;;12.57;6.50;;;24.10;99.90;;;;;;4991467;28;20208;-71
2023/10/01 09:02:55;;;;;;;10.82;5.85;;;24.10;99.90;;;;;;4991575;28;20173;-71
2023/10/01 09:05:24;;;;;;;10.88;6.30;;;24.40;99.90;;;;;;4991678;28;20448;-71
2023/10/01 09:08:14;;;;;;;11.23;5.88;;;24.70;99.90;;;;;;4990898;28;20251;-71
2023/10/01 09:10:39;;;;;;;11.05;6.18;;;24.90;99.90;;;;;;4987859;28;20200;-71
2023/10/01 09:13:08;;;;;;;11.27;6.35;;;25.20;99.90;;;;;;4983333;28;20181;-71
2023/10/01 09:15:38;;;;;;;10.00;6.00;;;25.10;99.90;;;;;;4988692;28;20290;-71
2023/10/01 09:18:10;;;;;;;12.05;6.20;;;25.10;99.90;;;;;;4991544;28;20184;-70
2023/10/01 09:20:38;;;;;;;10.70;6.03;;;25.20;99.90;;;;;;4990350;28;20208;-71
2023/10/01 09:23:05;;;;;;;9.80;6.32;;;25.40;99.90;;;;;;4991392;28;20173;-71
2023/10/01 09:25:34;;;;;;;11.68;6.38;;;25.30;99.90;;;;;;4984444;28;20192;-70
2023/10/01 09:28:43;;;;;;;11.10;6.25;;;25.40;99.90;;;;;;4991384;28;20542;-70
2023/10/01 09:31:02;;;;;;;11.00;6.15;;;25.30;99.90;;;;;;4988146;28;20216;-69
2023/10/01 09:33:31;;;;;;;10.82;6.40;;;25.30;99.90;;;;;;4991286;28;20184;-71
2023/10/01 09:35:59;;;;;;;12.60;6.28;;;25.20;99.90;;;;;;4991312;28;20265;-71
2023/10/01 09:38:28;;;;;;;9.50;6.13;;;25.30;99.90;;;;;;4991301;28;20177;-71
2023/10/01 09:40:56;;;;;;;9.65;6.45;;;25.30;99.90;;;;;;4983864;28;20200;-70
2023/10/01 09:43:27;;;;;;;9.90;6.15;;;25.40;99.90;;;;;;4991134;28;20173;-72
2023/10/01 09:45:54;;;;;;;10.23;6.32;;;25.60;99.90;;;;;;4989910;28;20208;-71
2023/10/01 09:48:31;;;;;;;9.55;5.93;;;25.80;99.90;;;;;;4991224;28;20649;-71
2023/10/01 09:51:18;;;;;;;11.43;6.72;;;26.10;99.90;;;;;;4981983;28;20215;-72
2023/10/01 09:53:54;;;;;;;13.23;6.82;;;26.30;99.90;;;;;;4989768;28;20180;-71
2023/10/01 09:56:26;;;;;;;10.43;6.25;;;26.30;99.90;;;;;;4985403;28;20169;-72
2023/10/01 09:59:07;;;;;;;10.65;7.20;;;26.40;99.90;;;;;;4990890;28;20209;-72
2023/10/01 10:01:38;;;;;;;10.95;6.63;;;26.40;99.90;;;;;;4991017;28;20207;-72
2023/10/01 10:04:08;;;;;;;13.00;7.55;;;26.30;99.90;;;;;;4980693;28;20173;-72
2023/10/01 10:06:35;;;;;;;9.95;6.38;;;26.20;99.90;;;;;;4981433;28;20264;-73
2023/10/01 10:09:03;;;;;;;10.55;7.20;;;26.20;99.90;;;;;;4987833;28;20235;-72
2023/10/01 10:11:40;;;;;;;10.60;7.03;;;26.30;99.90;;;;;;4994349;28;20541;-72
2023/10/01 10:14:27;;;;;;;10.32;6.65;;;26.20;99.90;;;;;;4994550;28;20200;-71
2023/10/01 10:17:18;;;;;;;9.13;6.50;;;26.20;99.90;;;;;;4989854;28;20185;-71
2023/10/01 10:20:15;;;;;;;13.80;7.72;;;26.20;99.90;;;;;;4994434;28;20283;-71
2023/10/01 10:23:13;;;;;;;10.82;6.63;;;26.30;99.90;;;;;;4992797;28;20181;-72
2023/10/01 10:25:40;;;;;;;11.63;7.28;;;26.20;99.90;;;;;;4993146;28;20188;-72
2023/10/01 10:28:06;;;;;;;12.85;6.55;;;26.00;99.90;;;;;;4994355;28;20213;-71
2023/10/01 10:30:32;;;;;;;12.43;7.18;;;25.80;99.90;;;;;;4994234;28;20196;-71
2023/10/01 10:33:29;;;;;;;13.30;6.70;;;25.80;99.90;;;;;;4987406;28;20193;-73
2023/10/01 10:36:33;;;;;;;11.30;6.97;;;25.70;99.90;;;;;;4994079;28;20208;-72
2023/10/01 10:38:59;;;;;;;10.63;6.47;;;25.70;99.90;;;;;;4994186;28;20176;-72
2023/10/01 10:41:25;;;;;;;12.77;6.95;;;25.60;99.90;;;;;;4993695;28;20227;-73
2023/10/01 10:44:08;;;;;;;12.80;6.53;;;25.60;99.90;;;;;;4994050;28;20183;-71
2023/10/01 10:47:01;;;;;;;13.65;7.82;;;25.40;99.90;;;;;;4984759;28;20216;-71
2023/10/01 10:49:52;;;;;;;13.90;7.18;;;25.40;99.90;;;;;;4974416;28;20198;-74
2023/10/01 10:52:37;;;;;;;12.70;7.07;;;25.50;99.90;;;;;;4967126;28;20178;-72
2023/10/01 10:55:16;;;;;;;14.68;6.53;;;25.60;99.90;;;;;;4973620;28;20232;-73
2023/10/01 10:57:48;;;;;;;13.98;7.07;;;25.50;99.90;;;;;;4971668;28;20181;-72
2023/10/01 11:00:23;;;;;;;11.35;6.72;;;25.40;99.90;;;;;;4971081;28;20203;-72
2023/10/01 11:02:56;;;;;;;11.30;6.45;;;25.40;99.90;;;;;;4975848;28;20240;-71
2023/10/01 11:05:29;;;;;;;12.57;6.60;;;25.40;99.90;;;;;;4973837;28;20185;-73
2023/10/01 11:07:58;;;;;;;13.45;7.38;;;25.40;99.90;;;;;;4982764;28;21478;-72
2023/10/01 11:10:42;;;;;;;13.48;6.75;;;25.40;99.90;;;;;;4988429;28;20200;-72
2023/10/01 11:13:13;;;;;;;12.20;6.28;;;25.20;99.90;;;;;;4977957;28;20421;-72
2023/10/01 11:15:42;;;;;;;13.20;6.90;;;25.10;99.90;;;;;;4988187;28;20253;-73
2023/10/01 11:18:11;;;;;;;9.68;6.47;;;25.20;99.90;;;;;;4974368;28;20269;-71
2023/10/01 11:20:45;;;;;;;12.02;7.53;;;25.30;99.90;;;;;;4990329;28;20267;-73
2023/10/01 11:23:17;;;;;;;13.15;7.03;;;25.40;99.90;;;;;;4981485;28;20592;-71
2023/10/01 11:25:47;;;;;;;12.52;6.63;;;25.60;99.90;;;;;;4993442;28;20231;-72
2023/10/01 11:28:13;;;;;;;13.65;7.43;;;25.70;99.90;;;;;;4990973;28;20264;-72
2023/10/01 11:30:42;;;;;;;11.63;7.05;;;25.70;99.90;;;;;;4988141;28;20204;-72
2023/10/01 11:35:59;;;;;;;13.55;6.75;;;25.90;99.90;;;;;;4993175;28;20703;-72
2023/10/01 11:38:25;;;;;;;11.85;7.13;;;26.20;99.90;;;;;;4992953;28;20185;-72
2023/10/01 11:41:06;;;;;;;15.15;8.27;;;26.60;99.90;;;;;;4984598;28;20291;-73
2023/10/01 11:44:00;;;;;;;12.95;7.78;;;26.60;99.90;;;;;;4980395;28;20176;-72
2023/10/01 11:46:35;;;;;;;13.23;7.60;;;26.70;99.90;;;;;;4992727;28;20192;-75
2023/10/01 11:49:06;;;;;;;14.50;7.82;;;26.70;99.90;;;;;;4988060;28;20603;-74
2023/10/01 11:51:48;;;;;;;12.68;7.78;;;26.60;99.90;;;;;;4988632;28;20186;-71
2023/10/01 11:54:43;;;;;;;14.00;8.10;;;26.50;99.90;;;;;;4978712;28;20242;-71
2023/10/01 11:57:23;;;;;;;15.25;8.13;;;26.50;99.90;;;;;;4986912;28;20231;-72
2023/10/01 12:00:08;;;;;;;14.93;8.23;;;26.60;99.90;;;;;;4960563;28;20704;-71
2023/10/01 12:02:43;;;;;;;14.65;7.57;;;26.70;99.90;;;;;;4970234;28;20177;-71
2023/10/01 12:05:13;;;;;;;11.75;8.02;;;26.90;99.90;;;;;;4969703;28;20193;-71
2023/10/01 12:07:45;;;;;;;12.55;7.25;;;27.00;99.90;;;;;;4971024;28;20389;-71
2023/10/01 12:10:31;;;;;;;15.25;7.82;;;27.30;99.90;;;;;;4968332;28;20216;-74
2023/10/01 12:13:01;;;;;;;12.63;7.43;;;27.40;99.90;;;;;;4972650;28;20197;-73
2023/10/01 12:15:37;;;;;;;11.15;7.05;;;27.40;99.90;;;;;;4972013;28;20243;-73
2023/10/01 12:18:13;;;;;;;13.75;7.22;;;27.50;99.90;;;;;;4972702;28;20188;-72
2023/10/01 12:20:50;;;;;;;12.75;7.70;;;27.60;99.90;;;;;;4972832;28;20672;-72
2023/10/01 12:23:19;;;;;;;12.40;7.13;;;27.70;99.90;;;;;;4972545;28;20176;-73
2023/10/01 12:25:47;;;;;;;14.23;8.32;;;27.70;99.90;;;;;;4972605;28;20182;-72
2023/10/01 12:28:18;;;;;;;12.70;7.18;;;27.70;99.90;;;;;;4964453;28;20649;-71
2023/10/01 12:30:57;;;;;;;12.35;7.22;;;27.70;99.90;;;;;;4969042;28;20634;-72
2023/10/01 12:33:38;;;;;;;15.63;7.75;;;27.90;99.90;;;;;;4970059;28;20585;-73
2023/10/01 12:36:42;;;;;;;13.82;7.45;;;28.20;99.90;;;;;;4972162;28;20245;-73
2023/10/01 12:41:47;;;;;;;13.48;7.03;;;28.30;99.90;;;;;;4972543;28;20638;-71
2023/10/01 12:44:25;;;;;;;11.80;6.68;;;28.20;99.90;;;;;;4964142;28;20169;-73
2023/10/01 12:46:55;;;;;;;11.75;7.22;;;28.30;99.90;;;;;;4969990;28;20212;-74
2023/10/01 12:49:21;;;;;;;11.85;7.03;;;28.60;99.90;;;;;;4971424;28;20264;-72
2023/10/01 12:51:53;;;;;;;10.65;7.28;;;28.70;99.90;;;;;;4971757;28;20185;-72
2023/10/01 12:54:22;;;;;;;12.90;8.07;;;28.90;99.90;;;;;;4969942;28;20212;-72
2023/10/01 12:57:01;;;;;;;13.05;7.03;;;29.00;99.90;;;;;;4971890;28;20185;-71
2023/10/01 12:59:36;;;;;;;12.32;8.20;;;29.00;99.90;;;;;;4970495;28;20679;-72
2023/10/01 13:02:02;;;;;;;13.65;7.32;;;29.10;99.90;;;;;;4969625;28;20204;-71
2023/10/01 13:04:29;;;;;;;14.57;8.55;;;29.30;99.90;;;;;;4970497;28;20228;-71
2023/10/01 13:07:03;;;;;;;18.95;8.73;;;29.30;99.90;;;;;;4969385;28;20256;-72
2023/10/01 13:12:14;;;;;;;13.38;8.25;;;29.20;99.90;;;;;;4976714;28;20193;-72
2023/10/01 13:15:33;;;;;;;17.80;8.30;;;29.40;99.90;;;;;;4969205;28;20205;-71
2023/10/01 13:17:38;;;;;;;15.43;8.57;;;29.60;99.90;;;;;;4956367;28;20177;-71
2023/10/01 13:20:18;;;;;;;14.82;8.43;;;29.90;99.90;;;;;;4968777;28;20205;-71
2023/10/01 13:22:59;;;;;;;13.32;7.93;;;29.90;99.90;;;;;;4967982;28;20271;-72
2023/10/01 13:25:26;;;;;;;14.43;7.88;;;29.90;99.90;;;;;;4962073;28;20177;-71
2023/10/01 13:28:01;;;;;;;15.27;7.90;;;30.00;99.90;;;;;;4977974;28;20184;-71
2023/10/01 13:30:30;;;;;;;13.10;8.65;;;29.90;99.90;;;;;;4986101;28;20657;-72